Time;durP1;ratioP1;P1;durP2;ratioP2;P2;SDS_P1;SDS_P2;PMS_P1;PMS_P2;Temp;Humidity;BMP_temperature;BMP_pressure;BME280_temperature;BME280_humidity;BME280_pressure;Samples;Min_cycle;Max_cycle;Signal;HPM_P1;HPM_P2
2022/06/18 00:01:37;;;;;;;11.48;6.42;;;;;;;15.95;85.10;99483.08;1812848;79;21020;-82
2022/06/18 00:04:11;;;;;;;10.18;6.25;;;;;;;15.83;84.73;99483.13;1797610;77;21454;-82
2022/06/18 00:06:59;;;;;;;13.08;6.65;;;;;;;15.75;84.91;99485.66;1787595;78;20920;-82
2022/06/18 00:09:36;;;;;;;13.10;6.30;;;;;;;15.66;85.72;99491.64;1801182;77;20979;-81
2022/06/18 00:15:08;;;;;;;14.98;5.55;;;;;;;15.54;85.78;99480.34;1816266;77;20967;-80
2022/06/18 00:17:35;;;;;;;14.53;6.17;;;;;;;15.47;86.06;99479.70;1817799;78;21028;-82
2022/06/18 00:20:02;;;;;;;8.33;5.05;;;;;;;15.40;83.66;99478.25;1816269;79;20952;-82
2022/06/18 00:22:30;;;;;;;9.43;5.80;;;;;;;15.30;85.39;99480.38;1798502;79;20964;-81
2022/06/18 00:24:57;;;;;;;9.75;5.22;;;;;;;15.27;84.31;99477.86;1809372;77;20924;-81
2022/06/18 00:27:23;;;;;;;10.45;4.97;;;;;;;15.22;85.77;99483.75;1804524;77;20983;-81
2022/06/18 00:29:51;;;;;;;8.20;5.20;;;;;;;15.20;85.73;99482.08;1811570;78;21472;-82
2022/06/18 00:32:18;;;;;;;12.58;5.65;;;;;;;15.20;86.92;99472.91;1797787;77;20931;-81
2022/06/18 00:34:45;;;;;;;9.50;5.05;;;;;;;15.22;86.53;99475.89;1817396;78;21015;-80
2022/06/18 00:37:19;;;;;;;9.83;5.40;;;;;;;15.24;86.67;99479.30;1795900;77;21014;-81
2022/06/18 00:39:46;;;;;;;9.95;4.70;;;;;;;15.26;86.97;99485.34;1817711;79;21063;-81
2022/06/18 00:42:18;;;;;;;6.60;4.80;;;;;;;15.24;86.76;99475.37;1801683;77;20963;-82
2022/06/18 00:44:52;;;;;;;10.03;4.85;;;;;;;15.21;86.21;99475.94;1814175;78;20968;-82
2022/06/18 00:47:34;;;;;;;7.90;4.90;;;;;;;15.22;86.65;99479.81;1799184;77;21046;-81
2022/06/18 00:50:30;;;;;;;6.97;4.95;;;;;;;15.23;86.41;99476.73;1796200;79;20964;-81
2022/06/18 00:53:14;;;;;;;6.85;4.60;;;;;;;15.24;86.80;99466.20;1809927;77;20984;-82
2022/06/18 00:55:55;;;;;;;10.10;4.60;;;;;;;15.27;86.53;99462.14;1817766;79;21003;-82
2022/06/18 00:58:27;;;;;;;8.55;5.05;;;;;;;15.23;86.32;99467.56;1802870;77;20992;-82
2022/06/18 01:00:56;;;;;;;11.93;5.15;;;;;;;15.25;86.61;99471.83;1805615;79;20979;-82
2022/06/18 01:03:31;;;;;;;8.58;4.70;;;;;;;15.26;86.21;99467.43;1811609;78;21006;-81
2022/06/18 01:06:22;;;;;;;10.28;5.50;;;;;;;15.24;86.20;99478.42;1813312;78;20979;-82
2022/06/18 01:09:00;;;;;;;10.68;5.28;;;;;;;15.24;86.31;99473.19;1815788;77;21079;-81
2022/06/18 01:11:31;;;;;;;8.65;5.58;;;;;;;15.18;85.97;99471.68;1810839;79;21580;-82
2022/06/18 01:14:01;;;;;;;9.58;5.12;;;;;;;15.13;85.75;99465.75;1795908;79;20963;-82
2022/06/18 01:16:29;;;;;;;8.50;5.42;;;;;;;15.06;85.76;99476.05;1808984;79;21115;-82
2022/06/18 01:18:57;;;;;;;11.78;5.37;;;;;;;14.95;85.69;99469.91;1800723;77;20984;-82
2022/06/18 01:21:44;;;;;;;9.50;5.45;;;;;;;14.88;86.32;99469.72;1790387;79;20996;-82
2022/06/18 01:24:26;;;;;;;9.78;5.90;;;;;;;14.80;86.18;99477.88;1800306;77;21067;-82
2022/06/18 01:26:54;;;;;;;9.93;4.87;;;;;;;14.69;86.17;99469.09;1817909;78;21019;-82
2022/06/18 01:29:21;;;;;;;10.23;5.10;;;;;;;14.62;86.29;99473.29;1815065;77;21011;-82
2022/06/18 01:31:49;;;;;;;7.45;5.17;;;;;;;14.57;87.04;99477.85;1818507;79;20979;-82
2022/06/18 01:34:16;;;;;;;8.68;4.90;;;;;;;14.53;86.84;99473.98;1776065;78;20941;-81
2022/06/18 01:36:45;;;;;;;7.55;5.17;;;;;;;14.49;86.62;99478.93;1825093;77;20958;-82
2022/06/18 01:39:17;;;;;;;10.32;4.95;;;;;;;14.45;86.88;99482.56;1824011;77;21011;-80
2022/06/18 01:41:52;;;;;;;9.63;5.70;;;;;;;14.45;87.39;99479.09;1801446;79;21437;-82
2022/06/18 01:44:46;;;;;;;8.65;5.40;;;;;;;14.47;87.59;99492.52;1814215;77;20964;-81
2022/06/18 01:47:26;;;;;;;9.88;5.22;;;;;;;14.49;87.73;99489.39;1804785;78;21128;-80
2022/06/18 01:50:34;;;;;;;8.43;5.00;;;;;;;14.50;87.26;99481.08;1813000;77;20972;-81
2022/06/18 01:53:16;;;;;;;11.00;5.65;;;;;;;14.55;88.11;99490.95;1792955;79;21451;-80
2022/06/18 01:55:48;;;;;;;7.10;5.15;;;;;;;14.60;88.12;99491.66;1798145;77;20968;-82
2022/06/18 01:58:23;;;;;;;7.33;5.00;;;;;;;14.63;87.89;99485.02;1819234;78;20980;-82
2022/06/18 02:00:56;;;;;;;10.13;5.30;;;;;;;14.67;87.92;99490.54;1800367;79;20967;-82
2022/06/18 02:03:23;;;;;;;8.38;4.55;;;;;;;14.69;87.10;99495.73;1817482;78;20980;-82
2022/06/18 02:05:50;;;;;;;9.93;4.87;;;;;;;14.66;88.36;99493.20;1805177;78;20999;-82
2022/06/18 02:08:19;;;;;;;21.75;5.15;;;;;;;14.62;87.90;99491.17;1813175;79;20944;-82
2022/06/18 02:11:03;;;;;;;14.25;5.10;;;;;;;14.61;87.83;99492.53;1823678;77;20977;-82
2022/06/18 02:13:38;;;;;;;12.90;4.70;;;;;;;14.60;87.71;99496.88;1822884;77;21104;-81
2022/06/18 02:16:09;;;;;;;8.18;4.90;;;;;;;14.61;87.96;99496.45;1818824;79;21007;-82
2022/06/18 02:18:38;;;;;;;6.08;3.87;;;;;;;14.59;87.95;99499.12;1807666;79;21000;-80
2022/06/18 02:21:09;;;;;;;6.47;3.40;;;;;;;14.56;86.62;99499.21;1815221;79;20929;-82
2022/06/18 02:23:36;;;;;;;8.25;3.90;;;;;;;14.51;86.92;99501.97;1813613;79;20968;-80
2022/06/18 02:26:06;;;;;;;9.80;5.30;;;;;;;14.49;87.58;99515.55;1816214;79;21071;-82
2022/06/18 02:28:42;;;;;;;10.20;4.25;;;;;;;14.45;88.08;99515.72;1809389;79;21019;-81
2022/06/18 02:31:20;;;;;;;13.60;4.30;;;;;;;14.43;88.49;99515.77;1817020;77;21024;-79
2022/06/18 02:33:52;;;;;;;6.85;4.35;;;;;;;14.39;88.60;99520.70;1807550;79;20956;-80
2022/06/18 02:36:26;;;;;;;;;;;;;;;14.36;89.84;99518.64;1798853;79;21055;-81
2022/06/18 02:39:22;;;;;;;7.08;4.20;;;;;;;14.31;89.22;99524.03;1798538;79;20103;-80
2022/06/18 02:41:50;;;;;;;10.35;4.55;;;;;;;14.25;89.13;99517.70;1818891;77;21059;-81
2022/06/18 02:44:17;;;;;;;12.33;4.53;;;;;;;14.19;88.08;99520.53;1819423;78;20929;-82
2022/06/18 02:46:44;;;;;;;9.33;4.83;;;;;;;14.15;88.62;99521.53;1807334;79;21003;-82
2022/06/18 02:49:13;;;;;;;14.35;4.83;;;;;;;14.14;88.63;99529.80;1809033;77;20948;-81
2022/06/18 02:51:42;;;;;;;10.25;4.10;;;;;;;14.15;88.83;99524.15;1818861;78;21007;-82
2022/06/18 02:54:10;;;;;;;8.40;4.47;;;;;;;14.17;88.72;99523.19;1799412;79;20979;-82
2022/06/18 02:56:37;;;;;;;7.55;4.20;;;;;;;14.18;88.79;99525.34;1816472;78;20983;-82
2022/06/18 02:59:06;;;;;;;6.45;3.92;;;;;;;14.21;88.96;99522.17;1799971;77;21456;-80
2022/06/18 03:01:34;;;;;;;5.70;3.72;;;;;;;14.23;88.64;99526.90;1791716;79;21011;-82
2022/06/18 03:04:03;;;;;;;6.47;4.35;;;;;;;14.26;88.38;99532.47;1787096;77;20907;-82
2022/06/18 03:06:33;;;;;;;7.87;4.67;;;;;;;14.23;87.62;99531.28;1812790;78;20988;-81
2022/06/18 03:09:00;;;;;;;10.48;5.35;;;;;;;14.24;87.52;99532.52;1813235;77;21006;-81
2022/06/18 03:14:17;;;;;;;9.20;5.65;;;;;;;14.20;86.77;99548.37;1823021;77;20932;-81
2022/06/18 03:16:44;;;;;;;8.98;6.33;;;;;;;14.16;87.89;99551.53;1795881;79;21034;-81
2022/06/18 03:19:23;;;;;;;10.53;6.00;;;;;;;14.19;87.31;99554.06;1815652;77;20975;-82
2022/06/18 03:21:51;;;;;;;10.18;6.20;;;;;;;14.20;88.13;99553.59;1805231;79;20972;-82
2022/06/18 03:24:18;;;;;;;10.78;6.67;;;;;;;14.25;88.87;99558.23;1818009;77;21018;-82
2022/06/18 03:26:45;;;;;;;11.03;6.95;;;;;;;14.25;88.10;99561.70;1801584;79;20987;-82
2022/06/18 03:29:12;;;;;;;13.60;8.30;;;;;;;14.28;88.68;99564.66;1812305;79;21038;-82
2022/06/18 03:31:39;;;;;;;11.80;6.12;;;;;;;14.37;89.76;99566.14;1804203;79;21066;-81
2022/06/18 03:34:06;;;;;;;13.53;6.95;;;;;;;14.45;89.37;99562.81;1811121;78;21405;-82
2022/06/18 03:36:33;;;;;;;12.33;6.78;;;;;;;14.57;89.40;99572.04;1803010;77;20925;-82
2022/06/18 03:39:00;;;;;;;15.30;6.40;;;;;;;14.67;89.83;99563.81;1824214;78;21537;-81
2022/06/18 03:41:28;;;;;;;9.38;6.10;;;;;;;14.75;89.10;99569.25;1816641;77;20992;-81
2022/06/18 03:43:56;;;;;;;10.93;6.37;;;;;;;14.83;89.28;99565.91;1818760;79;21007;-81
2022/06/18 03:46:23;;;;;;;10.80;6.10;;;;;;;14.95;89.23;99565.47;1796125;79;20992;-82
2022/06/18 03:49:00;;;;;;;11.95;6.33;;;;;;;15.06;89.34;99574.23;1810145;78;21464;-82
2022/06/18 03:51:30;;;;;;;9.48;6.40;;;;;;;15.11;88.81;99575.78;1804549;77;21054;-82
2022/06/18 03:53:59;;;;;;;12.60;6.60;;;;;;;15.19;88.53;99575.52;1804096;79;20932;-81
2022/06/18 03:56:30;;;;;;;13.30;6.33;;;;;;;15.26;88.22;99573.52;1813571;77;20952;-81
2022/06/18 03:58:58;;;;;;;11.10;6.65;;;;;;;15.28;87.76;99575.19;1802652;78;21055;-82
2022/06/18 04:01:30;;;;;;;9.85;6.90;;;;;;;15.26;88.09;99569.15;1805951;78;20964;-82
2022/06/18 04:03:59;;;;;;;9.53;6.83;;;;;;;15.27;87.55;99566.91;1813565;79;20987;-82
2022/06/18 04:06:29;;;;;;;11.35;7.62;;;;;;;15.19;87.00;99566.81;1815375;78;21027;-81
2022/06/18 04:08:57;;;;;;;12.43;6.67;;;;;;;15.15;87.33;99566.06;1813505;79;20992;-82
2022/06/18 04:11:26;;;;;;;12.88;7.37;;;;;;;15.13;87.19;99569.66;1796590;77;20952;-82
2022/06/18 04:13:54;;;;;;;10.25;6.62;;;;;;;15.07;87.77;99574.65;1786326;79;20939;-82
2022/06/18 04:16:33;;;;;;;9.53;6.20;;;;;;;15.05;87.64;99569.46;1770834;80;21057;-80
2022/06/18 04:19:01;;;;;;;11.33;6.80;;;;;;;15.03;87.37;99576.98;1805335;79;20975;-81
2022/06/18 04:21:28;;;;;;;12.25;7.35;;;;;;;14.99;86.74;99575.38;1791789;79;20947;-82
2022/06/18 04:23:55;;;;;;;11.00;6.95;;;;;;;14.90;87.18;99580.04;1797398;79;21022;-82
2022/06/18 04:26:22;;;;;;;11.95;7.87;;;;;;;14.91;87.41;99579.11;1832684;78;20946;-82
2022/06/18 04:28:49;;;;;;;11.33;7.67;;;;;;;14.88;87.83;99580.55;1809888;78;20916;-82
2022/06/18 04:31:17;;;;;;;14.47;7.12;;;;;;;14.93;87.95;99576.91;1821811;79;21002;-80
2022/06/18 04:33:46;;;;;;;13.75;7.72;;;;;;;14.98;88.41;99569.73;1804861;78;21502;-81
2022/06/18 04:36:32;;;;;;;13.40;6.87;;;;;;;14.98;88.99;99573.23;1813934;79;20986;-81
2022/06/18 04:39:00;;;;;;;14.73;7.42;;;;;;;15.10;89.37;99574.09;1800260;77;21527;-81
2022/06/18 04:41:41;;;;;;;13.13;7.00;;;;;;;15.30;89.28;99575.98;1818783;78;21012;-82
2022/06/18 04:44:12;;;;;;;12.93;7.00;;;;;;;15.41;88.38;99580.81;1813049;77;20998;-82
2022/06/18 04:46:40;;;;;;;12.45;7.00;;;;;;;15.47;88.09;99579.27;1808966;78;21022;-81
2022/06/18 04:49:07;;;;;;;13.20;7.12;;;;;;;15.55;87.63;99582.07;1827453;77;20983;-80
2022/06/18 04:51:34;;;;;;;13.62;7.78;;;;;;;15.51;87.54;99582.17;1812372;79;20921;-83
2022/06/18 04:54:01;;;;;;;11.78;5.92;;;;;;;15.53;87.32;99586.05;1809245;77;20971;-80
2022/06/18 04:56:28;;;;;;;11.55;5.60;;;;;;;15.54;87.22;99592.14;1774575;78;20991;-80
2022/06/18 04:58:54;;;;;;;9.28;5.90;;;;;;;15.56;87.33;99598.17;1790962;80;21018;-81
2022/06/18 05:01:28;;;;;;;12.15;5.72;;;;;;;15.55;87.26;99595.17;1788937;80;20995;-81
2022/06/18 05:04:14;;;;;;;12.88;5.62;;;;;;;15.56;86.81;99595.56;1793386;80;21027;-81
2022/06/18 05:06:48;;;;;;;10.18;6.28;;;;;;;15.62;87.33;99592.27;1775813;77;21083;-81
2022/06/18 05:09:19;;;;;;;10.55;6.05;;;;;;;15.67;86.85;99601.26;1789729;79;20976;-80
2022/06/18 05:11:48;;;;;;;10.08;6.08;;;;;;;15.67;86.51;99604.73;1760920;79;21004;-81
2022/06/18 05:14:17;;;;;;;9.10;5.62;;;;;;;15.69;86.30;99601.59;1816624;78;21015;-80
2022/06/18 05:16:45;;;;;;;9.38;6.08;;;;;;;15.76;86.21;99604.04;1807638;79;21072;-80
2022/06/18 05:19:26;;;;;;;10.30;5.80;;;;;;;15.80;86.18;99601.23;1817751;79;21475;-80
2022/06/18 05:21:55;;;;;;;8.20;5.90;;;;;;;15.83;85.72;99598.47;1795767;77;20960;-79
2022/06/18 05:24:23;;;;;;;9.00;5.62;;;;;;;15.87;85.59;99596.59;1815477;78;20965;-81
2022/06/18 05:26:54;;;;;;;13.40;5.72;;;;;;;15.93;85.50;99595.05;1809792;78;21499;-80
2022/06/18 05:29:21;;;;;;;10.28;5.60;;;;;;;16.02;85.26;99601.72;1795075;78;20921;-81
2022/06/18 05:31:49;;;;;;;7.80;4.67;;;;;;;16.09;84.70;99605.34;1796585;77;21023;-80
2022/06/18 05:34:17;;;;;;;8.63;5.30;;;;;;;16.16;84.23;99607.72;1812697;79;20956;-80
2022/06/18 05:36:45;;;;;;;7.20;4.90;;;;;;;16.21;83.74;99606.59;1804954;77;20935;-80
2022/06/18 05:39:17;;;;;;;11.45;5.08;;;;;;;16.26;83.54;99606.44;1787418;79;21031;-81
2022/06/18 05:41:45;;;;;;;8.43;5.12;;;;;;;16.37;83.57;99609.92;1792518;77;20955;-80
2022/06/18 05:44:11;;;;;;;8.80;4.80;;;;;;;16.46;83.48;99610.41;1789657;79;20974;-80
2022/06/18 05:46:38;;;;;;;11.95;5.10;;;;;;;16.57;83.43;99607.79;1813583;77;20925;-80
2022/06/18 05:49:05;;;;;;;7.95;5.75;;;;;;;16.69;83.52;99605.95;1805630;78;20968;-78
2022/06/18 05:51:32;;;;;;;7.80;4.92;;;;;;;16.81;83.50;99613.78;1817179;77;21483;-80
2022/06/18 05:53:59;;;;;;;9.85;5.72;;;;;;;16.96;83.47;99613.63;1801649;78;21031;-79
2022/06/18 05:56:27;;;;;;;9.08;5.42;;;;;;;17.09;83.23;99613.50;1805121;77;21028;-80
2022/06/18 05:59:02;;;;;;;10.48;5.28;;;;;;;17.21;82.59;99610.77;1806306;79;21498;-80
2022/06/18 06:01:31;;;;;;;8.23;5.45;;;;;;;17.30;82.56;99613.00;1794730;77;21067;-79
2022/06/18 06:04:00;;;;;;;8.65;5.05;;;;;;;17.41;82.31;99614.70;1807447;77;21518;-81
2022/06/18 06:06:27;;;;;;;8.63;5.70;;;;;;;17.49;81.79;99613.89;1808580;79;20993;-80
2022/06/18 06:08:54;;;;;;;10.68;5.15;;;;;;;17.61;81.00;99623.00;1791633;77;21482;-80
2022/06/18 06:11:30;;;;;;;7.70;5.10;;;;;;;17.70;80.82;99617.77;1807040;79;20999;-80
2022/06/18 06:13:59;;;;;;;10.55;4.47;;;;;;;17.81;80.82;99617.29;1795081;77;20979;-80
2022/06/18 06:16:28;;;;;;;7.40;4.50;;;;;;;17.90;78.83;99615.55;1808078;79;20992;-80
2022/06/18 06:18:57;;;;;;;8.58;4.80;;;;;;;17.95;78.13;99614.89;1801582;77;21500;-80
2022/06/18 06:21:24;;;;;;;8.75;4.30;;;;;;;18.00;77.71;99616.82;1817904;79;20979;-81
2022/06/18 06:23:51;;;;;;;7.20;4.35;;;;;;;18.05;76.75;99608.27;1798299;77;20959;-81
2022/06/18 06:26:22;;;;;;;6.80;3.83;;;;;;;18.10;76.94;99618.55;1757069;81;21066;-81
2022/06/18 06:28:49;;;;;;;8.88;4.35;;;;;;;18.17;76.97;99617.34;1798535;77;21432;-81
2022/06/18 06:31:16;;;;;;;6.92;4.03;;;;;;;18.25;76.59;99617.83;1812409;78;20952;-79
2022/06/18 06:33:44;;;;;;;5.85;3.87;;;;;;;18.33;76.59;99610.88;1802106;77;20932;-80
2022/06/18 06:36:12;;;;;;;6.42;3.17;;;;;;;18.43;76.25;99614.76;1816101;79;21266;-80
2022/06/18 06:38:40;;;;;;;4.75;3.20;;;;;;;18.50;75.07;99619.25;1816325;77;21110;-81
2022/06/18 06:41:12;;;;;;;5.35;3.70;;;;;;;18.57;75.53;99613.23;1802769;79;21509;-81
2022/06/18 06:43:38;;;;;;;8.05;4.00;;;;;;;18.68;75.02;99617.04;1798842;79;20969;-81
2022/06/18 06:46:05;;;;;;;6.17;3.77;;;;;;;18.79;75.27;99622.23;1795281;77;20963;-80
2022/06/18 06:48:32;;;;;;;7.00;3.30;;;;;;;18.93;75.63;99622.40;1822543;78;21020;-80
2022/06/18 06:50:59;;;;;;;5.37;3.40;;;;;;;19.07;75.44;99617.27;1806270;77;20963;-80
2022/06/18 06:53:26;;;;;;;8.58;3.55;;;;;;;19.18;73.72;99624.63;1798601;79;20964;-80
2022/06/18 06:58:38;;;;;;;4.65;3.05;;;;;;;19.37;72.91;99615.75;1796848;79;21034;-81
2022/06/18 07:01:05;;;;;;;5.80;3.20;;;;;;;19.44;72.57;99611.86;1813330;77;21000;-81
2022/06/18 07:03:33;;;;;;;7.30;3.60;;;;;;;19.52;72.36;99614.94;1802963;78;20955;-80
2022/06/18 07:06:02;;;;;;;4.42;3.20;;;;;;;19.60;70.88;99611.42;1810173;79;20943;-80
2022/06/18 07:08:31;;;;;;;4.75;2.92;;;;;;;19.66;70.19;99611.55;1802637;78;20956;-80
2022/06/18 07:10:58;;;;;;;5.20;3.00;;;;;;;19.70;69.89;99605.17;1812930;77;21023;-81
2022/06/18 07:13:25;;;;;;;5.67;2.83;;;;;;;19.78;69.66;99610.07;1796235;78;21008;-80
2022/06/18 07:15:53;;;;;;;6.62;2.60;;;;;;;19.86;69.02;99610.49;1801386;77;20964;-81
2022/06/18 07:18:24;;;;;;;6.03;2.60;;;;;;;19.92;66.56;99599.59;1794638;78;20968;-81
2022/06/18 07:20:51;;;;;;;5.90;2.40;;;;;;;20.00;64.62;99605.30;1796594;77;20999;-80
2022/06/18 07:23:19;;;;;;;4.75;2.62;;;;;;;20.04;65.81;99603.34;1787769;79;21444;-80
2022/06/18 07:25:46;;;;;;;4.85;3.00;;;;;;;20.08;66.52;99598.75;1812078;79;20976;-81
2022/06/18 07:28:12;;;;;;;7.20;3.10;;;;;;;20.17;66.96;99599.53;1809363;77;21425;-81
2022/06/18 07:30:40;;;;;;;4.78;2.90;;;;;;;20.28;66.95;99601.09;1808903;78;20971;-80
2022/06/18 07:33:10;;;;;;;6.60;2.70;;;;;;;20.39;66.48;99603.11;1806522;77;20979;-80
2022/06/18 07:35:38;;;;;;;6.12;2.92;;;;;;;20.43;64.49;99603.31;1809511;78;20983;-81
2022/06/18 07:38:05;;;;;;;6.37;3.10;;;;;;;20.49;64.23;99606.07;1803713;77;21701;-81
2022/06/18 07:40:37;;;;;;;8.28;3.02;;;;;;;20.57;65.25;99606.47;1804569;79;20968;-80
2022/06/18 07:43:08;;;;;;;6.78;3.10;;;;;;;20.66;64.53;99608.62;1803432;77;21510;-80
2022/06/18 07:45:35;;;;;;;3.83;2.52;;;;;;;20.73;65.01;99603.38;1785440;79;20995;-80
2022/06/18 07:48:02;;;;;;;5.37;2.65;;;;;;;20.82;64.54;99608.09;1813135;77;20933;-80
2022/06/18 07:50:29;;;;;;;4.72;3.00;;;;;;;20.92;63.39;99608.88;1802156;79;21456;-80
2022/06/18 07:52:56;;;;;;;6.00;3.08;;;;;;;20.98;62.68;99611.99;1812518;77;20990;-80
2022/06/18 07:55:26;;;;;;;6.67;3.20;;;;;;;21.02;62.00;99617.47;1786216;78;20959;-80
2022/06/18 07:57:53;;;;;;;5.20;2.95;;;;;;;21.05;61.96;99615.14;1805242;77;20969;-80
2022/06/18 08:00:22;;;;;;;5.65;2.90;;;;;;;21.13;62.23;99620.81;1803653;79;21043;-80
2022/06/18 08:02:50;;;;;;;4.75;2.60;;;;;;;21.22;62.62;99622.88;1795769;79;20920;-80
2022/06/18 08:05:24;;;;;;;5.62;2.85;;;;;;;21.32;62.23;99628.94;1801460;78;21461;-80
2022/06/18 08:07:51;;;;;;;5.80;2.62;;;;;;;21.40;61.03;99614.77;1805953;79;20944;-80
2022/06/18 08:10:18;;;;;;;6.00;3.00;;;;;;;21.49;61.08;99616.02;1799159;77;20987;-80
2022/06/18 08:12:46;;;;;;;4.03;2.40;;;;;;;21.53;61.41;99613.11;1817332;79;20972;-81
2022/06/18 08:15:13;;;;;;;7.87;2.30;;;;;;;21.58;59.12;99613.66;1807891;77;21461;-80
2022/06/18 08:17:39;;;;;;;3.90;2.40;;;;;;;21.63;56.89;99623.48;1788645;79;20967;-81
2022/06/18 08:20:08;;;;;;;4.30;2.27;;;;;;;21.70;58.55;99619.97;1792381;77;20939;-81
2022/06/18 08:22:38;;;;;;;4.65;2.08;;;;;;;21.77;57.95;99621.30;1798664;78;20948;-80
2022/06/18 08:25:08;;;;;;;4.37;2.10;;;;;;;21.87;57.57;99622.05;1808132;77;20966;-81
2022/06/18 08:27:35;;;;;;;4.22;2.27;;;;;;;21.92;56.94;99616.81;1799808;79;21452;-82
2022/06/18 08:30:24;;;;;;;3.60;2.08;;;;;;;21.93;54.67;99617.69;1815235;77;20956;-81
2022/06/18 08:32:51;;;;;;;3.95;2.17;;;;;;;21.97;56.44;99608.12;1791826;79;20999;-81
2022/06/18 08:35:18;;;;;;;5.35;2.30;;;;;;;22.08;57.49;99599.95;1749439;81;21539;-80
2022/06/18 08:37:45;;;;;;;3.52;2.15;;;;;;;22.19;54.83;99608.06;1760344;80;20983;-79
2022/06/18 08:40:36;;;;;;;4.42;2.27;;;;;;;22.23;55.20;99599.80;1745419;81;21074;-80
2022/06/18 08:43:11;;;;;;;5.08;2.30;;;;;;;22.32;56.59;99600.18;1709046;81;21070;-80
2022/06/18 08:45:55;;;;;;;3.87;1.90;;;;;;;22.44;55.89;99598.04;1739016;81;21051;-80
2022/06/18 08:48:49;;;;;;;3.62;1.72;;;;;;;22.51;55.48;99595.86;1770957;80;20990;-79
2022/06/18 08:51:31;;;;;;;4.95;2.37;;;;;;;22.56;54.31;99593.73;1786713;79;20936;-81
2022/06/18 08:54:12;;;;;;;5.28;2.10;;;;;;;22.63;54.36;99589.24;1754906;80;20967;-80
2022/06/18 08:56:50;;;;;;;4.62;2.45;;;;;;;22.77;53.70;99590.13;1755180;81;21491;-81
2022/06/18 08:59:25;;;;;;;5.33;2.15;;;;;;;22.86;55.27;99587.31;1750985;80;20992;-82
2022/06/18 09:02:01;;;;;;;5.10;2.12;;;;;;;23.00;55.41;99588.56;1742899;81;20984;-81
2022/06/18 09:05:03;;;;;;;5.05;2.12;;;;;;;23.14;53.86;99589.81;1764962;80;21016;-81
2022/06/18 09:08:10;;;;;;;4.03;2.15;;;;;;;23.21;52.92;99582.27;1768037;79;20943;-80
2022/06/18 09:10:59;;;;;;;3.50;2.30;;;;;;;23.22;53.39;99587.95;1762788;81;21471;-80
2022/06/18 09:13:34;;;;;;;3.05;2.15;;;;;;;23.32;53.31;99576.23;1750802;80;21098;-80
2022/06/18 09:16:05;;;;;;;6.55;1.95;;;;;;;23.37;52.78;99582.87;1747239;81;21530;-80
2022/06/18 09:18:43;;;;;;;4.05;2.17;;;;;;;23.45;51.79;99592.11;1760880;80;21074;-81
2022/06/18 09:21:18;;;;;;;5.05;2.27;;;;;;;23.48;52.95;99587.94;1747121;80;20995;-81
2022/06/18 09:23:50;;;;;;;5.72;2.00;;;;;;;23.54;52.87;99585.68;1739973;80;21590;-80
2022/06/18 09:26:24;;;;;;;3.75;2.15;;;;;;;23.62;51.44;99585.98;1761774;81;20948;-81
2022/06/18 09:29:01;;;;;;;3.27;2.10;;;;;;;23.66;50.49;99585.28;1757587;80;21522;-82
2022/06/18 09:31:45;;;;;;;5.12;2.20;;;;;;;23.69;49.91;99582.88;1741683;80;21169;-81
2022/06/18 09:34:29;;;;;;;4.00;1.60;;;;;;;23.74;50.34;99582.92;1753258;80;21614;-82
2022/06/18 09:37:06;;;;;;;3.12;2.00;;;;;;;23.87;49.75;99590.03;1747615;81;21071;-82
2022/06/18 09:39:40;;;;;;;2.98;1.67;;;;;;;23.90;47.26;99578.72;1743908;80;21023;-82
2022/06/18 09:42:24;;;;;;;5.90;2.00;;;;;;;23.85;45.15;99583.50;1780649;80;21067;-81
2022/06/18 09:45:12;;;;;;;4.28;2.05;;;;;;;23.86;46.86;99573.75;1777796;78;21571;-82
2022/06/18 09:47:44;;;;;;;3.35;2.05;;;;;;;23.91;47.29;99577.73;1785541;79;21071;-82
2022/06/18 09:50:19;;;;;;;2.47;1.67;;;;;;;23.97;45.09;99584.41;1788536;78;22207;-82
2022/06/18 09:52:51;;;;;;;8.03;2.22;;;;;;;23.98;46.44;99577.67;1786013;79;21063;-81
2022/06/18 09:55:29;;;;;;;5.10;2.12;;;;;;;24.01;45.27;99588.54;1778563;78;21047;-82
2022/06/18 09:57:58;;;;;;;6.12;1.80;;;;;;;23.97;44.18;99583.95;1783674;79;21064;-83
2022/06/18 10:00:29;;;;;;;6.87;2.12;;;;;;;23.96;44.28;99584.06;1790877;78;20996;-81
2022/06/18 10:09:04;;;;;;;2.87;1.90;;;;;;;24.25;45.71;99581.05;1776469;79;21047;-81
2022/06/18 10:11:31;;;;;;;4.03;2.00;;;;;;;24.39;46.19;99583.07;1769358;78;21048;-82
2022/06/18 10:14:04;;;;;;;3.65;1.92;;;;;;;24.47;44.72;99581.17;1774824;80;21083;-83
2022/06/18 10:16:48;;;;;;;5.83;2.03;;;;;;;24.54;45.21;99586.89;1769558;78;21055;-81
2022/06/18 10:19:50;;;;;;;3.20;1.98;;;;;;;24.63;45.09;99576.91;1780980;80;21080;-81
2022/06/18 10:22:28;;;;;;;3.67;1.95;;;;;;;24.76;44.19;99582.96;1777059;79;21078;-81
2022/06/18 10:25:32;;;;;;;4.72;2.35;;;;;;;24.86;44.88;99578.28;1762691;79;21004;-81
2022/06/18 10:28:25;;;;;;;2.65;1.80;;;;;;;24.83;40.46;99582.48;1794477;80;20987;-81
2022/06/18 10:31:09;;;;;;;3.85;1.70;;;;;;;24.84;42.08;99577.06;1790281;78;21174;-81
2022/06/18 10:33:44;;;;;;;5.17;2.35;;;;;;;24.83;41.76;99578.04;1763537;79;21526;-81
2022/06/18 10:36:47;;;;;;;5.58;2.70;;;;;;;24.92;43.29;99581.30;1772544;81;20982;-81
2022/06/18 10:39:49;;;;;;;3.05;1.90;;;;;;;25.07;43.30;99575.30;1772392;81;21094;-82
2022/06/18 10:42:36;;;;;;;2.77;1.67;;;;;;;25.20;41.94;99571.18;1760145;80;21031;-82
2022/06/18 10:45:45;;;;;;;3.30;2.00;;;;;;;25.32;42.75;99568.07;1776922;79;20969;-81
2022/06/18 10:48:16;;;;;;;2.40;1.60;;;;;;;25.46;42.40;99571.81;1762507;79;22246;-82
2022/06/18 10:50:50;;;;;;;3.22;1.50;;;;;;;25.55;39.09;99575.58;1778883;80;20960;-80
2022/06/18 10:53:21;;;;;;;4.70;1.32;;;;;;;25.57;39.03;99575.80;1759907;80;21013;-81
2022/06/18 10:56:08;;;;;;;2.98;1.50;;;;;;;25.62;37.17;99570.10;1779866;81;20944;-81
2022/06/18 10:58:35;;;;;;;2.37;1.47;;;;;;;25.54;36.08;99576.03;1775904;79;20995;-82
2022/06/18 11:01:07;;;;;;;3.40;1.47;;;;;;;25.50;37.19;99571.92;1747465;81;20975;-81
2022/06/18 11:03:34;;;;;;;3.12;1.90;;;;;;;25.53;37.51;99565.53;1774940;80;21000;-82
2022/06/18 11:06:13;;;;;;;4.33;1.50;;;;;;;25.63;39.15;99567.81;1778628;81;21460;-81
2022/06/18 11:08:51;;;;;;;2.80;1.60;;;;;;;25.70;37.79;99565.00;1761743;81;20994;-82
2022/06/18 11:11:23;;;;;;;5.10;2.00;;;;;;;25.74;36.12;99562.94;1769042;81;20979;-81
2022/06/18 11:13:50;;;;;;;7.67;2.70;;;;;;;25.79;38.98;99563.43;1765849;79;21031;-82
2022/06/18 11:16:22;;;;;;;6.58;2.72;;;;;;;25.97;38.88;99553.97;1760425;80;20974;-82
2022/06/18 11:18:59;;;;;;;3.92;1.57;;;;;;;26.12;38.40;99553.66;1774918;81;20988;-82
2022/06/18 11:21:40;;;;;;;3.87;1.98;;;;;;;26.25;38.50;99545.52;1779864;81;21014;-81
2022/06/18 11:24:21;;;;;;;2.27;1.30;;;;;;;26.42;36.90;99548.93;1753998;81;21478;-82
2022/06/18 11:26:55;;;;;;;6.55;1.67;;;;;;;26.47;37.88;99555.23;1748223;81;21533;-81
2022/06/18 11:29:40;;;;;;;3.98;1.50;;;;;;;26.54;37.86;99545.72;1774497;81;21023;-83
2022/06/18 11:32:24;;;;;;;4.85;1.50;;;;;;;26.65;38.47;99540.86;1779972;79;21058;-81
2022/06/18 11:35:11;;;;;;;2.25;1.40;;;;;;;26.77;36.11;99547.31;1796818;79;21543;-82
2022/06/18 11:37:37;;;;;;;2.58;1.55;;;;;;;26.72;33.75;99554.88;1766987;79;21051;-82
2022/06/18 11:40:18;;;;;;;2.45;1.40;;;;;;;26.80;34.43;99546.23;1783801;78;21040;-82
2022/06/18 11:42:56;;;;;;;2.37;1.60;;;;;;;26.77;34.61;99545.14;1789502;79;21016;-82
2022/06/18 11:45:35;;;;;;;2.67;1.47;;;;;;;26.68;32.66;99545.45;1782878;78;21027;-82
2022/06/18 11:48:25;;;;;;;2.33;1.30;;;;;;;26.75;34.19;99539.93;1794712;79;21008;-83
2022/06/18 11:51:00;;;;;;;3.55;1.32;;;;;;;26.86;34.25;99535.03;1813754;78;21028;-82
2022/06/18 11:53:41;;;;;;;3.17;1.45;;;;;;;27.04;35.56;99536.59;1767460;79;21024;-82
2022/06/18 11:56:33;;;;;;;5.58;1.50;;;;;;;27.24;35.62;99530.88;1805690;79;20961;-83
2022/06/18 11:59:23;;;;;;;2.72;1.50;;;;;;;27.49;35.59;99530.88;1796385;80;21096;-82
2022/06/18 12:02:03;;;;;;;1.62;1.10;;;;;;;27.76;34.90;99521.39;1785126;78;21004;-82
2022/06/18 12:04:50;;;;;;;1.95;1.30;;;;;;;27.90;34.35;99525.52;1784238;80;21031;-82
2022/06/18 12:07:43;;;;;;;2.22;1.40;;;;;;;28.00;33.78;99528.20;1784207;78;21016;-83
2022/06/18 12:10:14;;;;;;;2.10;1.20;;;;;;;28.12;33.35;99527.08;1795366;79;20980;-83
2022/06/18 12:13:01;;;;;;;3.55;1.20;;;;;;;28.23;31.99;99518.06;1786138;78;21000;-82
2022/06/18 12:15:33;;;;;;;4.60;1.37;;;;;;;28.29;31.97;99521.50;1794420;79;21040;-82